Time;durP1;ratioP1;P1;durP2;ratioP2;P2;SDS_P1;SDS_P2;PMS_P1;PMS_P2;Temp;Humidity;BMP_temperature;BMP_pressure;BME280_temperature;BME280_humidity;BME280_pressure;Samples;Min_cycle;Max_cycle;Signal;HPM_P1;HPM_P2
2022/09/04 00:02:20;;;;;;;;;19.67;18.00;;;;;22.90;50.47;100811.28;5116158;27;45195;-68
2022/09/04 00:05:10;;;;;;;;;27.00;24.00;;;;;23.07;50.29;100845.44;5116155;27;45464;-69
2022/09/04 00:08:00;;;;;;;;;15.00;12.33;;;;;22.99;50.74;100841.00;5114120;27;45330;-72
2022/09/04 00:10:40;;;;;;;;;17.67;14.33;;;;;22.99;50.75;100851.03;5123503;27;45416;-68
2022/09/04 00:13:35;;;;;;;;;29.25;24.00;;;;;22.87;50.84;100834.94;5112587;27;45256;-69
2022/09/04 00:16:07;;;;;;;;;33.75;27.25;;;;;22.94;50.67;100847.53;5118003;27;45683;-67
2022/09/04 00:18:39;;;;;;;;;11.00;11.00;;;;;22.87;50.47;100846.75;5121963;27;45087;-67
2022/09/04 00:21:11;;;;;;;;;12.67;10.33;;;;;22.92;50.31;100858.44;5119266;27;45129;-73
2022/09/04 00:23:56;;;;;;;;;9.67;7.67;;;;;22.93;50.48;100857.53;5121731;27;45082;-70
2022/09/04 00:26:38;;;;;;;;;11.33;9.33;;;;;22.90;50.13;100867.56;5123333;27;45761;-67
2022/09/04 00:29:41;;;;;;;;;13.33;9.67;;;;;22.73;50.18;100848.91;5119544;27;45883;-70
2022/09/04 00:32:24;;;;;;;;;4.67;4.67;;;;;22.82;50.22;100874.09;5125156;27;45201;-70
2022/09/04 00:35:03;;;;;;;;;12.00;12.00;;;;;22.77;50.33;100859.69;5120735;27;45718;-70
2022/09/04 00:37:35;;;;;;;;;11.33;8.00;;;;;22.79;50.30;100866.00;5122783;27;45125;-67
2022/09/04 00:40:27;;;;;;;;;12.00;11.67;;;;;22.82;50.30;100874.09;5124290;27;45094;-69
2022/09/04 00:43:25;;;;;;;;;11.00;8.00;;;;;22.81;49.90;100883.19;5120581;27;45166;-70
2022/09/04 00:46:12;;;;;;;;;9.33;9.33;;;;;22.81;50.07;100882.31;5117854;27;45150;-70
2022/09/04 00:49:03;;;;;;;;;7.33;6.00;;;;;22.76;49.97;100882.41;5119046;27;46866;-71
2022/09/04 00:51:44;;;;;;;;;36.00;32.25;;;;;22.69;50.60;100878.03;5116382;27;45240;-69
2022/09/04 00:54:34;;;;;;;;;11.33;10.00;;;;;22.59;49.62;100869.16;5120269;27;45146;-68
2022/09/04 00:57:24;;;;;;;;;17.33;14.00;;;;;22.71;49.83;100894.34;5117735;27;45367;-69
2022/09/04 01:00:08;;;;;;;;;7.00;7.00;;;;;22.64;49.85;100888.13;5123360;27;46119;-67
2022/09/04 01:03:12;;;;;;;;;10.67;9.00;;;;;22.58;50.09;100891.88;5117288;27;45416;-66
2022/09/04 01:05:58;;;;;;;;;7.67;7.33;;;;;22.51;50.27;100894.78;5091453;27;45544;-69
2022/09/04 01:09:11;;;;;;;;;13.00;10.00;;;;;22.47;50.31;100895.75;5121158;27;45197;-69
2022/09/04 01:12:00;;;;;;;;;10.33;10.00;;;;;22.45;50.08;100901.22;5124556;27;45826;-70
2022/09/04 01:14:47;;;;;;;;;8.67;8.67;;;;;22.42;50.11;100901.28;5119716;27;46094;-70
2022/09/04 01:17:22;;;;;;;;;9.67;7.00;;;;;22.38;50.10;100910.44;5114960;27;45264;-66
2022/09/04 01:19:48;;;;;;;;;10.00;8.00;;;;;22.38;49.87;100907.72;5115526;27;45171;-69
2022/09/04 01:22:32;;;;;;;;;7.00;7.00;;;;;22.36;49.83;100910.47;5119765;27;46181;-69
2022/09/04 01:24:57;;;;;;;;;7.67;7.67;;;;;22.41;49.71;100905.84;5118859;27;44939;-69
2022/09/04 01:27:33;;;;;;;;;8.00;6.00;;;;;22.25;49.49;100877.97;5117523;27;45036;-67
2022/09/04 01:30:19;;;;;;;;;8.33;7.33;;;;;22.08;49.61;100848.38;5120303;27;44945;-70
2022/09/04 01:33:09;;;;;;;;;6.00;6.00;;;;;22.31;49.39;100906.94;5115641;27;45160;-70
2022/09/04 01:36:08;;;;;;;;;7.67;5.33;;;;;22.36;49.29;100915.03;5114840;27;45174;-70
2022/09/04 01:38:43;;;;;;;;;6.67;6.00;;;;;22.33;49.08;100918.69;5120594;27;44962;-69
2022/09/04 01:41:33;;;;;;;;;8.00;7.33;;;;;22.26;49.16;100919.72;5120089;27;45402;-69
2022/09/04 01:43:59;;;;;;;;;7.00;6.00;;;;;22.11;48.76;100899.16;5116332;27;45241;-69
2022/09/04 01:46:40;;;;;;;;;6.00;4.00;;;;;22.15;48.89;100925.34;5114315;27;45226;-68
2022/09/04 01:49:24;;;;;;;;;5.00;5.00;;;;;22.07;48.82;100928.22;5119043;27;45424;-71
2022/09/04 01:52:26;;;;;;;;;7.00;5.00;;;;;21.99;49.06;100922.03;5121438;27;45212;-71
2022/09/04 01:55:06;;;;;;;;;6.33;6.33;;;;;21.97;49.17;100928.44;5121694;27;45099;-67
2022/09/04 01:57:53;;;;;;;;;8.00;6.00;;;;;21.55;48.99;100861.16;5125747;27;45296;-68
2022/09/04 02:00:24;;;;;;;;;5.00;5.00;;;;;21.93;49.02;100924.88;5125853;27;44935;-68
2022/09/04 02:03:11;;;;;;;;;6.67;5.00;;;;;21.87;49.14;100925.84;5130656;27;44977;-68
2022/09/04 02:05:47;;;;;;;;;9.00;7.33;;;;;21.83;49.20;100926.84;5132220;27;45698;-66
2022/09/04 02:08:57;;;;;;;;;5.00;5.00;;;;;21.78;49.27;100934.19;5122968;27;45064;-66
2022/09/04 02:11:30;;;;;;;;;7.00;6.00;;;;;21.37;49.48;100884.09;5126694;27;44877;-71
2022/09/04 02:14:08;;;;;;;;;5.00;5.00;;;;;21.63;49.39;100934.44;5124109;27;45171;-67
2022/09/04 02:16:55;;;;;;;;;6.00;6.00;;;;;21.65;49.68;100938.94;5122227;27;46528;-68
2022/09/04 02:19:35;;;;;;;;;4.33;3.67;;;;;21.61;49.49;100934.44;5130679;27;45190;-67
2022/09/04 02:22:22;;;;;;;;;6.33;6.00;;;;;21.57;49.64;100945.44;5127639;27;46317;-69
2022/09/04 02:24:56;;;;;;;;;6.33;4.33;;;;;21.53;49.54;100939.13;5125392;27;45178;-67
2022/09/04 02:27:28;;;;;;;;;6.00;6.00;;;;;21.49;49.64;100943.72;5125997;27;45068;-71
2022/09/04 02:30:06;;;;;;;;;8.00;4.33;;;;;21.06;50.00;100876.41;5118538;27;47089;-69
2022/09/04 02:32:36;;;;;;;;;6.00;6.00;;;;;21.46;49.96;100953.69;5126734;27;46573;-67
2022/09/04 02:35:04;;;;;;;;;6.67;5.00;;;;;21.44;50.10;100951.00;5129781;27;45138;-67
2022/09/04 02:37:32;;;;;;;;;8.00;6.00;;;;;21.46;50.20;100950.97;5131669;27;45173;-69
2022/09/04 02:40:28;;;;;;;;;4.00;4.00;;;;;21.44;50.03;100959.16;5124409;27;45057;-66
2022/09/04 02:43:16;;;;;;;;;6.00;6.00;;;;;21.43;50.29;100961.91;5126321;27;45222;-69
2022/09/04 02:46:02;;;;;;;;;7.67;6.00;;;;;21.38;50.17;100958.34;5120856;27;45325;-68
2022/09/04 02:48:43;;;;;;;;;5.00;5.00;;;;;21.33;49.69;100948.47;5122494;27;45194;-71
2022/09/04 02:51:31;;;;;;;;;6.00;4.33;;;;;21.37;49.71;100964.72;5124221;27;45114;-70
2022/09/04 02:54:03;;;;;;;;;6.33;6.00;;;;;21.33;49.93;100972.00;5128181;27;45197;-70
2022/09/04 02:56:46;;;;;;;;;6.33;6.33;;;;;21.30;49.99;100970.25;5125877;27;45291;-70
2022/09/04 02:59:33;;;;;;;;;6.67;6.67;;;;;21.27;49.68;100974.84;5122332;27;45459;-72
2022/09/04 03:02:02;;;;;;;;;5.00;5.00;;;;;21.20;49.67;100973.09;5119869;27;45096;-68
2022/09/04 03:04:37;;;;;;;;;4.33;4.33;;;;;21.24;49.82;100973.03;5123215;27;45007;-66
2022/09/04 03:07:13;;;;;;;;;4.00;4.00;;;;;21.21;49.88;100967.66;5118958;27;45061;-72
2022/09/04 03:09:46;;;;;;;;;4.33;4.00;;;;;21.27;49.90;100966.69;5120597;27;45284;-69
2022/09/04 03:12:28;;;;;;;;;8.00;4.00;;;;;21.24;49.33;100964.00;5120553;27;44925;-66
2022/09/04 03:15:03;;;;;;;;;4.67;4.67;;;;;21.11;49.29;100942.44;5116902;27;45232;-66
2022/09/04 03:17:46;;;;;;;;;4.00;4.00;;;;;21.20;49.38;100965.88;5122325;27;45123;-68
2022/09/04 03:20:31;;;;;;;;;3.67;3.67;;;;;21.24;49.22;100980.31;5121973;27;45587;-66
2022/09/04 03:23:03;;;;;;;;;9.67;6.00;;;;;21.23;49.19;100976.66;5125207;27;45083;-69
2022/09/04 03:26:07;;;;;;;;;5.00;3.67;;;;;21.20;49.45;100979.47;5129809;27;45678;-70
2022/09/04 03:28:46;;;;;;;;;5.00;3.00;;;;;21.20;49.52;100982.19;5124987;27;45106;-67
2022/09/04 03:31:28;;;;;;;;;5.00;4.00;;;;;21.13;49.04;100975.91;5134588;27;47024;-68
2022/09/04 03:34:32;;;;;;;;;5.00;4.67;;;;;21.21;49.13;100983.06;5123588;27;45109;-65
2022/09/04 03:37:00;;;;;;;;;4.33;4.33;;;;;21.20;49.04;100986.69;5117827;27;45278;-67
2022/09/04 03:39:47;;;;;;;;;3.00;3.00;;;;;21.07;48.88;100967.84;5122937;27;45203;-69
2022/09/04 03:42:27;;;;;;;;;7.00;4.67;;;;;21.17;48.59;100985.81;5121054;27;45622;-67
2022/09/04 03:45:14;;;;;;;;;7.33;3.67;;;;;21.19;48.71;100984.91;5118679;27;45160;-69
2022/09/04 03:48:37;;;;;;;;;3.67;3.67;;;;;21.17;48.58;100991.25;5126174;27;45110;-69
2022/09/04 03:51:19;;;;;;;;;6.67;5.00;;;;;21.15;48.33;100965.00;5108596;27;45159;-68
2022/09/04 03:54:11;;;;;;;;;5.00;3.33;;;;;21.26;48.55;100990.22;5110153;27;45142;-69
2022/09/04 03:56:45;;;;;;;;;4.67;4.00;;;;;21.28;48.52;100976.63;5118641;27;45120;-66
2022/09/04 03:59:26;;;;;;;;;4.67;3.33;;;;;21.29;48.15;100984.75;5122996;27;45032;-68
2022/09/04 04:02:35;;;;;;;;;4.00;4.00;;;;;21.32;48.07;100986.53;5118940;27;44988;-66
2022/09/04 04:05:35;;;;;;;;;5.00;4.00;;;;;21.32;48.03;100995.56;5093835;27;45103;-66
2022/09/04 04:08:32;;;;;;;;;3.33;3.00;;;;;21.30;47.92;100996.50;5120443;27;45191;-68
2022/09/04 04:11:25;;;;;;;;;4.67;4.67;;;;;21.26;48.03;100989.34;5116185;27;45410;-66
2022/09/04 04:14:11;;;;;;;;;4.00;4.00;;;;;21.31;47.73;100999.19;5121777;27;45545;-67
2022/09/04 04:17:09;;;;;;;;;6.33;3.67;;;;;21.11;48.13;100972.31;5114347;27;45745;-70
2022/09/04 04:19:34;;;;;;;;;6.33;4.67;;;;;21.35;47.65;101000.09;5123464;27;45036;-70
2022/09/04 04:22:24;;;;;;;;;4.00;3.00;;;;;21.36;47.72;100999.16;5115552;27;45169;-71
2022/09/04 04:25:16;;;;;;;;;4.33;4.33;;;;;21.35;48.02;101003.69;5122311;27;45122;-66
2022/09/04 04:28:05;;;;;;;;;5.00;5.00;;;;;21.28;48.01;100987.47;5119813;27;45123;-68
2022/09/04 04:30:46;;;;;;;;;6.33;4.33;;;;;21.22;47.94;100971.25;5119728;27;45153;-66
2022/09/04 04:33:42;;;;;;;;;5.67;4.00;;;;;21.39;47.78;101009.09;5120060;27;45314;-67
2022/09/04 04:36:20;;;;;;;;;4.67;3.33;;;;;21.38;47.87;101001.84;5118615;27;45141;-70
2022/09/04 04:39:08;;;;;;;;;4.67;3.67;;;;;21.40;48.13;101014.50;5120068;27;45153;-67
2022/09/04 04:42:05;;;;;;;;;5.00;5.00;;;;;21.39;48.02;101012.69;5118468;27;45146;-66
2022/09/04 04:47:42;;;;;;;;;4.67;4.67;;;;;21.38;47.59;101010.88;5119907;27;45139;-70
2022/09/04 04:50:48;;;;;;;;;5.00;4.00;;;;;21.39;47.45;101009.09;5115615;27;46271;-66
2022/09/04 04:53:50;;;;;;;;;5.67;2.67;;;;;21.33;47.20;101012.78;5125253;27;45102;-70
2022/09/04 04:56:25;;;;;;;;;4.00;4.00;;;;;21.30;47.09;101016.44;5121487;27;45122;-70
2022/09/04 04:59:07;;;;;;;;;2.00;2.00;;;;;21.28;46.93;101020.09;5119871;27;45150;-72
2022/09/04 05:01:57;;;;;;;;;5.00;3.00;;;;;21.38;47.08;101035.34;5120138;27;46312;-71
2022/09/04 05:04:52;;;;;;;;;5.33;2.33;;;;;21.40;46.99;101033.53;5119905;27;44973;-71
2022/09/04 05:07:36;;;;;;;;;2.67;2.67;;;;;21.39;46.45;101039.88;5116927;27;45252;-69
2022/09/04 05:10:16;;;;;;;;;3.67;3.33;;;;;21.35;46.83;101043.56;5118684;27;45290;-67
2022/09/04 05:13:27;;;;;;;;;4.33;3.00;;;;;21.33;47.16;101046.31;5115547;27;46602;-66
2022/09/04 05:16:14;;;;;;;;;3.67;3.67;;;;;21.27;46.92;101034.63;5113220;27;45255;-68
2022/09/04 05:19:04;;;;;;;;;3.33;3.33;;;;;21.32;47.13;101049.94;5122704;27;45074;-69
2022/09/04 05:21:41;;;;;;;;;3.33;3.33;;;;;21.30;47.31;101048.13;5119186;27;45038;-69
2022/09/04 05:24:51;;;;;;;;;4.67;3.00;;;;;21.27;47.18;101054.53;5119475;27;46614;-67
2022/09/04 05:27:22;;;;;;;;;2.00;2.00;;;;;21.29;47.50;101060.84;5112164;27;45264;-66
2022/09/04 05:30:07;;;;;;;;;5.33;3.67;;;;;21.29;47.43;101066.28;5117130;27;45194;-68
2022/09/04 05:32:45;;;;;;;;;3.67;2.67;;;;;21.27;47.37;101062.69;5116851;27;45111;-70
2022/09/04 05:35:13;;;;;;;;;5.00;4.67;;;;;21.36;47.59;101077.97;5122802;27;45588;-71
2022/09/04 05:37:56;;;;;;;;;3.33;3.33;;;;;21.20;47.59;101052.81;5120723;27;45360;-68
2022/09/04 05:41:00;;;;;;;;;8.33;5.33;;;;;21.34;47.83;101082.53;5119787;27;45164;-66
2022/09/04 05:43:48;;;;;;;;;3.67;2.00;;;;;21.34;46.96;101085.25;5118479;27;45076;-67
2022/09/04 05:46:44;;;;;;;;;3.67;3.67;;;;;21.20;46.95;101068.22;5122255;27;46362;-68
2022/09/04 05:49:30;;;;;;;;;7.00;5.00;;;;;21.33;47.07;101089.78;5126455;27;45173;-67
2022/09/04 05:52:14;;;;;;;;;3.33;3.00;;;;;21.40;47.37;101086.97;5116426;27;44869;-67
2022/09/04 05:54:52;;;;;;;;;7.00;5.00;;;;;21.31;47.80;101075.31;5113889;27;45072;-67
2022/09/04 05:57:33;;;;;;;;;4.67;4.67;;;;;21.34;47.30;101090.69;5120411;27;45796;-70
2022/09/04 06:00:05;;;;;;;;;5.33;5.33;;;;;21.45;46.45;101095.97;5120844;27;47303;-67
2022/09/04 06:02:48;;;;;;;;;5.67;3.67;;;;;21.45;46.77;101099.59;5119827;27;46249;-68
2022/09/04 06:05:20;;;;;;;;;3.67;3.67;;;;;21.49;46.40;101101.38;5117979;27;45043;-71
2022/09/04 06:07:59;;;;;;;;;3.33;3.33;;;;;21.51;46.84;101099.56;5115110;27;46221;-67
2022/09/04 06:10:40;;;;;;;;;5.67;3.67;;;;;21.57;46.14;101114.88;5116338;27;45197;-67
2022/09/04 06:13:38;;;;;;;;;4.33;4.33;;;;;21.59;46.95;101099.44;5115397;27;45050;-67
2022/09/04 06:16:31;;;;;;;;;8.33;5.33;;;;;21.59;46.93;101112.16;5111423;27;45218;-67
2022/09/04 06:19:30;;;;;;;;;4.00;4.00;;;;;21.48;47.09;101093.25;5117644;27;45338;-67
2022/09/04 06:22:17;;;;;;;;;5.67;5.67;;;;;21.61;47.78;101104.88;5110515;27;45529;-70
2022/09/04 06:25:03;;;;;;;;;6.00;6.00;;;;;21.43;49.21;101106.88;5120282;27;45125;-70
2022/09/04 06:28:05;;;;;;;;;9.33;6.00;;;;;21.53;49.27;101124.91;5116605;27;45108;-69
2022/09/04 06:31:12;;;;;;;;;7.00;5.33;;;;;21.44;49.39;101107.78;5115105;27;45244;-66
2022/09/04 06:33:52;;;;;;;;;5.33;5.00;;;;;21.48;49.82;101129.50;5107682;27;45421;-69
2022/09/04 06:36:32;;;;;;;;;7.00;7.00;;;;;21.51;49.95;101131.28;5119158;27;45323;-67
2022/09/04 06:39:16;;;;;;;;;6.67;6.67;;;;;21.17;49.77;101071.88;5121198;27;44930;-66
2022/09/04 06:42:15;;;;;;;;;5.33;5.33;;;;;21.60;49.24;101124.84;5125712;27;47707;-66
2022/09/04 06:45:08;;;;;;;;;16.00;13.00;;;;;21.31;49.30;101071.69;5128902;27;45069;-67
2022/09/04 06:47:42;;;;;;;;;8.33;7.67;;;;;21.69;49.14;101136.47;5117869;27;45270;-65
2022/09/04 06:50:23;;;;;;;;;6.00;6.00;;;;;21.70;49.18;101145.53;5124649;27;45196;-67
2022/09/04 06:53:01;;;;;;;;;6.00;6.00;;;;;21.70;48.81;101142.81;5120163;27;46010;-66
2022/09/04 06:55:45;;;;;;;;;7.00;7.00;;;;;21.67;48.60;101153.72;5122631;27;45190;-77
2022/09/04 06:58:23;;;;;;;;;9.67;7.33;;;;;21.61;48.93;101143.81;5127943;27;45125;-68
2022/09/04 07:00:54;;;;;;;;;7.00;6.00;;;;;21.55;49.09;101149.38;5126511;27;45106;-68
2022/09/04 07:03:48;;;;;;;;;9.00;7.00;;;;;21.53;49.35;101149.38;5128944;27;45593;-66
2022/09/04 07:06:20;;;;;;;;;8.00;6.67;;;;;21.50;49.57;101148.53;5123355;27;45109;-67
2022/09/04 07:09:04;;;;;;;;;5.33;5.33;;;;;21.54;49.55;101151.16;5125436;27;45076;-70
2022/09/04 07:12:07;;;;;;;;;10.00;8.67;;;;;21.62;49.01;101147.47;5118188;27;45226;-71
2022/09/04 07:15:13;;;;;;;;;8.67;6.33;;;;;21.63;49.03;101151.97;5119798;27;45082;-69
2022/09/04 07:18:11;;;;;;;;;9.33;5.67;;;;;21.65;49.04;101151.03;5119448;27;44902;-71
2022/09/04 07:20:53;;;;;;;;;7.00;7.00;;;;;21.61;49.10;101154.69;5116393;27;45213;-67
2022/09/04 07:23:59;;;;;;;;;6.00;6.00;;;;;21.65;48.97;101163.75;5125785;27;45012;-69
2022/09/04 07:26:41;;;;;;;;;8.00;8.00;;;;;21.73;48.95;101172.69;5121095;27;45230;-68
2022/09/04 07:29:28;;;;;;;;;6.67;5.33;;;;;21.80;48.97;101177.13;5119482;27;45134;-66
2022/09/04 07:32:19;;;;;;;;;6.33;5.33;;;;;21.88;48.69;101177.94;5117979;27;45105;-66
2022/09/04 07:35:08;;;;;;;;;7.33;6.00;;;;;21.99;48.55;101182.31;5120073;27;45591;-67
2022/09/04 07:37:49;;;;;;;;;7.00;7.00;;;;;22.11;48.31;101184.88;5120289;27;45333;-67
2022/09/04 07:40:17;;;;;;;;;6.67;6.00;;;;;22.20;47.67;101178.38;5116969;27;45352;-67
2022/09/04 07:43:04;;;;;;;;;10.33;6.67;;;;;22.23;47.40;101181.06;5115789;27;45322;-66
2022/09/04 07:45:37;;;;;;;;;7.00;5.00;;;;;22.14;47.38;101148.53;5125493;27;45831;-66
2022/09/04 07:48:18;;;;;;;;;7.67;7.00;;;;;22.39;47.42;101173.56;5120293;27;45248;-67
2022/09/04 07:51:02;;;;;;;;;6.00;6.00;;;;;22.45;46.77;101174.41;5116804;27;45047;-68
2022/09/04 07:53:48;;;;;;;;;11.33;7.67;;;;;22.48;46.45;101178.00;5120105;27;45057;-67
2022/09/04 07:56:28;;;;;;;;;7.00;5.67;;;;;22.49;46.10;101183.44;5116231;27;45158;-68
2022/09/04 07:59:33;;;;;;;;;4.67;4.67;;;;;22.57;45.93;101186.00;5122649;27;45241;-66
2022/09/04 08:02:32;;;;;;;;;7.00;6.67;;;;;22.61;45.54;101191.38;5122599;27;45071;-67
2022/09/04 08:05:06;;;;;;;;;6.00;6.00;;;;;22.64;46.00;101199.50;5122285;27;45194;-68
2022/09/04 08:07:32;;;;;;;;;4.67;4.67;;;;;22.63;45.92;101189.53;5116809;27;45051;-68
2022/09/04 08:10:09;;;;;;;;;5.67;5.33;;;;;22.71;46.05;101199.41;5121230;27;51197;-68
2022/09/04 08:13:01;;;;;;;;;7.00;7.00;;;;;22.74;45.81;101199.34;5117377;27;45264;-67
2022/09/04 08:15:47;;;;;;;;;7.00;6.33;;;;;22.77;45.60;101196.59;5119947;27;45266;-68
2022/09/04 08:18:45;;;;;;;;;6.67;6.00;;;;;22.89;45.57;101200.91;5122778;27;45424;-66
2022/09/04 08:21:24;;;;;;;;;7.33;7.33;;;;;22.88;45.08;101200.00;5118889;27;45603;-66
2022/09/04 08:24:08;;;;;;;;;8.33;7.00;;;;;22.92;45.01;101211.78;5115470;27;45123;-66
2022/09/04 08:26:33;;;;;;;;;8.67;7.00;;;;;22.93;44.63;101216.28;5118500;27;45078;-66
2022/09/04 08:29:11;;;;;;;;;7.00;5.33;;;;;23.06;45.21;101215.13;5120386;27;45139;-66
2022/09/04 08:31:50;;;;;;;;;7.67;5.67;;;;;23.19;44.83;101207.66;5116429;27;46082;-67
2022/09/04 08:34:24;;;;;;;;;4.00;4.00;;;;;23.34;44.61;101207.38;5121323;27;45007;-66
2022/09/04 08:37:11;;;;;;;;;7.67;7.67;;;;;23.48;44.65;101207.13;5116777;27;45227;-67
2022/09/04 08:39:45;;;;;;;;;6.00;6.00;;;;;23.63;43.81;101214.09;5118750;27;45052;-67
2022/09/04 08:42:29;;;;;;;;;8.00;7.00;;;;;23.72;43.11;101216.59;5115792;27;45071;-65
2022/09/04 08:45:31;;;;;;;;;6.67;5.00;;;;;23.85;43.40;101220.00;5124015;27;45181;-66
2022/09/04 08:48:17;;;;;;;;;7.00;7.00;;;;;23.99;42.36;101213.34;5113841;27;45113;-68
2022/09/04 08:51:01;;;;;;;;;5.33;4.00;;;;;24.08;41.71;101213.16;5119641;27;45013;-66
2022/09/04 08:53:54;;;;;;;;;7.00;5.33;;;;;24.09;41.89;101213.13;5124974;27;46017;-66
2022/09/04 08:56:40;;;;;;;;;7.00;7.00;;;;;24.20;41.19;101217.44;5120025;27;45034;-66
2022/09/04 08:59:49;;;;;;;;;7.33;5.00;;;;;24.26;41.65;101217.31;5121413;27;44962;-68
2022/09/04 09:02:33;;;;;;;;;5.00;4.00;;;;;24.31;40.51;101222.69;5126826;27;45118;-66
2022/09/04 09:05:17;;;;;;;;;2.00;2.00;;;;;24.41;40.13;101226.97;5117379;27;47296;-68
2022/09/04 09:08:05;;;;;;;;;5.33;5.33;;;;;24.45;40.66;101217.75;5116168;27;45198;-67
2022/09/04 09:10:52;;;;;;;;;4.00;4.00;;;;;24.55;39.41;101224.88;5116989;27;45002;-67
2022/09/04 09:13:48;;;;;;;;;3.33;3.33;;;;;24.62;39.41;101223.75;5114751;27;44965;-67
2022/09/04 09:16:31;;;;;;;;;2.33;2.33;;;;;24.61;38.62;101196.47;5113605;27;45600;-67
2022/09/04 09:19:15;;;;;;;;;3.00;3.00;;;;;24.80;38.76;101222.41;5121499;27;45040;-68
2022/09/04 09:21:53;;;;;;;;;5.00;4.33;;;;;24.83;39.46;101211.41;5125149;27;44967;-67
2022/09/04 09:24:40;;;;;;;;;3.00;3.00;;;;;25.01;38.84;101220.97;5117919;27;45086;-68
2022/09/04 09:27:21;;;;;;;;;2.67;2.67;;;;;25.05;37.93;101223.63;5121428;27;45151;-67
2022/09/04 09:30:01;;;;;;;;;3.00;3.00;;;;;25.18;37.53;101222.38;5119729;27;44995;-67
2022/09/04 09:32:49;;;;;;;;;5.67;4.00;;;;;25.20;37.86;101212.28;5121257;27;44975;-67
2022/09/04 09:35:33;;;;;;;;;5.00;3.33;;;;;25.37;38.20;101218.19;5119388;27;45108;-67
2022/09/04 09:38:33;;;;;;;;;6.67;4.33;;;;;25.46;38.07;101224.34;5113450;27;45232;-68
2022/09/04 09:41:36;;;;;;;;;7.67;6.00;;;;;25.47;38.22;101223.41;5111561;27;45191;-68
2022/09/04 09:44:13;;;;;;;;;9.67;4.33;;;;;25.58;37.72;101223.13;5120599;27;45175;-67
2022/09/04 09:46:53;;;;;;;;;4.33;3.00;;;;;25.66;37.45;101229.28;5113463;27;44920;-68
2022/09/04 09:49:34;;;;;;;;;9.00;6.00;;;;;25.66;37.45;101229.28;5118445;27;45830;-67
2022/09/04 09:52:34;;;;;;;;;5.67;3.00;;;;;25.67;37.63;101229.25;5120690;27;44996;-68
2022/09/04 09:55:20;;;;;;;;;5.00;4.00;;;;;25.73;36.69;101220.81;5069781;27;45487;-68
2022/09/04 09:58:19;;;;;;;;;4.00;3.00;;;;;25.78;36.59;101223.44;5084083;27;45457;-68
2022/09/04 10:01:18;;;;;;;;;4.00;4.00;;;;;25.76;36.82;101211.66;5108016;27;45806;-67
2022/09/04 10:03:58;;;;;;;;;4.67;4.33;;;;;25.82;36.79;101222.41;5122388;27;45136;-69
2022/09/04 10:07:01;;;;;;;;;5.00;5.00;;;;;25.87;37.16;101214.97;5117805;27;45186;-69
2022/09/04 10:10:07;;;;;;;;;3.33;3.33;;;;;25.88;36.68;101207.63;5119945;27;45193;-69
2022/09/04 10:12:49;;;;;;;;;7.00;6.33;;;;;25.91;37.06;101210.28;5113482;27;45632;-66
2022/09/04 10:15:33;;;;;;;;;3.00;3.00;;;;;26.00;37.22;101210.03;5118369;27;45324;-67
2022/09/04 10:18:35;;;;;;;;;20.00;17.33;;;;;26.08;36.80;101209.78;5117490;27;45248;-69
2022/09/04 10:21:49;;;;;;;;;4.67;4.67;;;;;26.24;36.62;101212.97;5121528;27;45030;-67
2022/09/04 10:24:37;;;;;;;;;5.33;4.33;;;;;26.05;35.98;101168.81;5120073;27;45684;-69
2022/09/04 10:27:46;;;;;;;;;2.67;2.33;;;;;26.30;35.87;101205.44;5118650;27;45334;-69
2022/09/04 10:30:20;;;;;;;;;4.33;4.33;;;;;26.26;35.94;101203.75;5124404;27;45103;-70
2022/09/04 10:33:13;;;;;;;;;5.00;3.67;;;;;26.30;36.08;101197.22;5120561;27;44996;-68
2022/09/04 10:35:51;;;;;;;;;4.33;4.33;;;;;26.26;36.38;101203.75;5121232;27;45859;-69
2022/09/04 10:41:39;;;;;;;;;2.67;2.67;;;;;26.44;36.03;101199.50;5117171;27;45007;-68
2022/09/04 10:44:35;;;;;;;;;3.67;3.67;;;;;26.44;35.87;101198.63;5121520;27;45233;-67
2022/09/04 10:47:13;;;;;;;;;5.67;4.33;;;;;26.49;35.99;101186.56;5126057;27;46178;-68
2022/09/04 10:50:06;;;;;;;;;7.33;5.67;;;;;26.56;35.72;101183.63;5117172;27;45299;-67
2022/09/04 10:53:13;;;;;;;;;5.67;5.67;;;;;26.60;35.73;101188.06;5123416;27;45524;-69
2022/09/04 10:56:07;;;;;;;;;5.67;5.00;;;;;26.72;35.59;101189.53;5121565;27;45185;-68
2022/09/04 10:58:54;;;;;;;;;2.00;2.00;;;;;26.76;35.47;101181.16;5122300;27;45520;-68
2022/09/04 11:01:57;;;;;;;;;4.67;3.67;;;;;26.81;35.69;101179.16;5120250;27;45169;-69
2022/09/04 11:04:59;;;;;;;;;4.67;4.00;;;;;26.87;35.81;101174.41;5121851;27;45333;-68
2022/09/04 11:07:43;;;;;;;;;6.33;3.33;;;;;26.93;35.92;101168.69;5118177;27;44988;-71
2022/09/04 11:10:33;;;;;;;;;3.00;3.00;;;;;26.98;35.82;101162.09;5121624;27;45348;-67
2022/09/04 11:13:16;;;;;;;;;5.33;4.33;;;;;27.07;35.85;101173.69;5109737;27;45364;-67
2022/09/04 11:16:17;;;;;;;;;3.33;3.33;;;;;27.11;35.87;101161.63;5121928;27;45006;-69
2022/09/04 11:19:09;;;;;;;;;6.00;6.00;;;;;27.20;35.87;101169.53;5116424;27;45342;-70
2022/09/04 11:21:53;;;;;;;;;4.33;4.33;;;;;26.89;35.92;101103.94;5129847;27;45839;-69
2022/09/04 11:24:59;;;;;;;;;4.67;4.00;;;;;27.27;35.52;101168.34;5118188;27;45251;-67
2022/09/04 11:27:48;;;;;;;;;5.00;3.67;;;;;27.27;35.39;101167.47;5115316;27;45298;-69
2022/09/04 11:30:20;;;;;;;;;1.00;1.00;;;;;27.26;35.33;101168.44;5119982;27;45213;-68
2022/09/04 11:32:54;;;;;;;;;5.33;4.33;;;;;27.29;34.97;101160.06;5118189;27;45618;-68
2022/09/04 11:35:35;;;;;;;;;4.33;4.33;;;;;27.29;35.22;101158.28;5121514;27;45133;-69
2022/09/04 11:38:28;;;;;;;;;6.00;3.00;;;;;27.30;35.34;101160.06;5120780;27;45003;-69
2022/09/04 11:41:31;;;;;;;;;5.00;5.00;;;;;27.28;35.18;101161.06;5126437;27;45459;-69
2022/09/04 11:44:17;;;;;;;;;8.00;4.00;;;;;26.93;35.41;101103.78;5118762;27;45927;-70
2022/09/04 11:47:18;;;;;;;;;3.67;3.67;;;;;27.17;35.27;101154.13;5117024;27;45042;-69
2022/09/04 11:49:53;;;;;;;;;8.00;7.00;;;;;27.17;35.25;101154.13;5115877;27;45186;-69
2022/09/04 11:52:50;;;;;;;;;6.00;5.33;;;;;26.90;35.62;101100.25;5123138;27;45075;-69
2022/09/04 11:55:46;;;;;;;;;2.67;2.67;;;;;27.29;34.90;101155.53;5093716;27;46088;-67
2022/09/04 11:58:31;;;;;;;;;2.00;2.00;;;;;27.29;34.79;101147.31;5116139;27;45120;-66
2022/09/04 12:01:36;;;;;;;;;5.00;5.00;;;;;27.32;35.13;101160.91;5125322;27;45248;-67
2022/09/04 12:04:13;;;;;;;;;3.00;3.00;;;;;27.36;34.90;101148.88;5115694;27;45184;-67
2022/09/04 12:06:58;;;;;;;;;7.00;4.33;;;;;27.38;35.05;101143.31;5120162;27;47520;-66
2022/09/04 12:09:45;;;;;;;;;3.00;3.00;;;;;27.41;34.81;101153.28;5120215;27;45134;-67
2022/09/04 12:12:21;;;;;;;;;4.67;4.67;;;;;27.37;34.83;101156.16;5121705;27;45415;-68
2022/09/04 12:15:22;;;;;;;;;3.00;2.67;;;;;27.36;35.03;101148.88;5117507;27;45386;-67
2022/09/04 12:18:13;;;;;;;;;2.00;2.00;;;;;27.40;34.96;101149.63;5108506;27;45751;-66
2022/09/04 12:21:16;;;;;;;;;8.67;6.67;;;;;27.42;34.44;101147.72;5118569;27;45633;-67
2022/09/04 12:23:47;;;;;;;;;4.00;4.00;;;;;27.45;34.66;101146.72;5113152;27;44978;-65
2022/09/04 12:26:13;;;;;;;;;2.33;2.33;;;;;27.47;34.46;101139.31;5113777;27;45458;-66
2022/09/04 12:29:19;;;;;;;;;2.00;2.00;;;;;27.47;34.34;101139.31;5103006;27;45464;-68
2022/09/04 12:32:17;;;;;;;;;5.33;4.00;;;;;27.41;34.25;101117.63;5116864;27;45512;-66
2022/09/04 12:35:09;;;;;;;;;3.67;3.00;;;;;27.47;34.58;101120.09;5114186;27;45168;-65
2022/09/04 12:38:11;;;;;;;;;10.33;7.67;;;;;27.50;34.46;101131.84;5122073;27;45032;-66
2022/09/04 12:40:52;;;;;;;;;8.00;7.33;;;;;27.54;34.30;101127.19;5115771;27;45120;-67
2022/09/04 12:43:23;;;;;;;;;4.67;3.33;;;;;27.58;33.68;101124.22;5114454;27;45058;-67
2022/09/04 12:46:11;;;;;;;;;3.00;3.00;;;;;27.60;34.05;101129.66;5115418;27;45337;-66
2022/09/04 12:48:42;;;;;;;;;5.33;5.33;;;;;27.64;34.02;101122.22;5119142;27;44982;-67
2022/09/04 12:51:24;;;;;;;;;4.67;4.67;;;;;27.69;33.83;101128.44;5114947;27;45895;-67
2022/09/04 12:54:17;;;;;;;;;6.00;3.33;;;;;27.78;33.84;101130.78;5120937;27;45158;-67
2022/09/04 12:57:16;;;;;;;;;4.33;4.00;;;;;27.81;33.98;101127.94;5116756;27;45089;-67
2022/09/04 13:00:04;;;;;;;;;7.00;6.00;;;;;27.81;33.96;101130.69;5120395;27;45075;-68